Strona główna
METAR-TAF:

METAR-TAF

Lotnisko :

Juazeiro do Norte, Ceará, Brazylia

Szerokość geograficzna: 07-13-06S, Długość geograficzna: 039-16-18W, wysokość: 424 m

Aktualna obserwacja pogody

Raport powstał 6 godziny i 47 minut temu, godzina 20:00 UTC
Wiatr 5 kt od wschodnio-południowy wschód
Temperatura 30°C
Wilgotność 62%
Ciśnienie 1016 hPa
Widzialność 10 km lub więcej
Mało chmury na wysokości 2200 ft

METAR: SBJU 032000Z 12005KT 9999 FEW022 30/22 Q1016

czas: 23:47 (02:47 UTC)


TAF: brakujący

Obserwacja i prognoza pogody dla ponad 4000 lotnisk (raport METAR i TAF).

Dostępne stacje oznaczono żółtymi i czerwonymi punktami na mapie.

Najedź kursorem aby zobaczyć nazwę stacji.

Kliknij aby zobaczyć obserwacje i prognozy pogody.

Aby zmienić mapę: kliknij na zielony przycisk z czarnym krzyżykiem, aby powiększyć; na zielony przycisk z myślnikiem, aby pomniejszyć; na zielone strzałki, aby przejść do map sąsiednich.


METAR-TAF: